METAR

METAR LDZA 211330Z 22009KT 190V260 CAVOK 25/15 Q1020 NOSIG =
METAR LDSP 211330Z 23008KT CAVOK 24/16 Q1022 NOSIG=
METAR LDDU 211330Z 28007KT 250V320 CAVOK 22/12 Q1022 NOSIG =
METAR LDZD 211330Z 22006KT 160V260 CAVOK 24/16 Q1023 NOSIG =
METAR LDPL 211330Z 10007KT 080V140 9999 SCT015 21/17 Q1023 NOSIG=
METAR LDOS 211330Z 21006KT 170V240 CAVOK 27/10 Q1021=
METAR LDRI 211330Z 28005KT 240V320 CAVOK 23/15 Q1023=

TAF

TAF LDZA 211125Z 2112/2212 24010KT CAVOK
                 TX25/2113Z TN10/2204Z
           BECMG 2115/2117 23005KT
    PROB30 TEMPO 2202/2206 4000 MIFG BR=
TAF LDSP 211125Z 2112/2212 23007KT CAVOK
                 TX25/2112Z TN14/2205Z
           BECMG 2114/2116 30007KT=
TAF LDDU 211125Z 2112/2212 24006KT CAVOK
                 TX24/2211Z TN15/2205Z
          PROB40 2113/2116 29008KT
           TEMPO 2121/2207 08008KT=
TAF LDZD 211125Z 2112/2212 24007KT CAVOK
                 TX25/2112Z TN12/2205Z
           BECMG 2118/2120 VRB02KT 3000 BCFG
           TEMPO 2120/2206 1200
          PROB40 2122/2205 0400 FG VV001
           BECMG 2207/2209 8000 NSW=
TAF LDPL 211125Z 2112/2212 11008KT 9999 BKN020
                 TX24/2211Z TN12/2204Z
           BECMG 2208/2210 27006KT=
TAF LDOS 211125Z 2112/2212 23008KT CAVOK
                 TX26/2112Z TN08/2204Z
    PROB30 TEMPO 2203/2206 VRB02KT 4000 BR=
TAF LDRI 211125Z 2112/2212 VRB02KT 9999 BKN035
                 TX23/2113Z TN14/2204Z
           BECMG 2208/2210 32006KT=
TAF AMD LDLO 201523Z 2015/2112 CNL=

SIGMET

AIRMET

Remark

Ukoliko se brzina i smjer vjetra ne mogu odrediti zbog privremenog kvara sustava/indikatora,
informacija o vjetru u METAR izvješću bit će prikazana kao "/////KT".

 

Disclaimer

 

In case of temporary system/sensor failure, wind speed and direction data will be represented as "/////KT" in METAR report.

 

If you cannot log in with your user account, please contact stjepko.jancijev@crocontrol.hr.
Specifically, the website deactivates user accounts that have not been used for more than 365 days, so they must be reactivated.
 

         

      Politika MET podataka      

 

Ukoliko se svojim korisničkim računom ne možete logirati na web stranicu, molim vas da se obratite na stjepko.jancijev@crocontrol.hr.

Naime, web stranica deaktivira korisničke račune koji nisu korišteni više od 365 dana te ih je potrebno ponovno aktivirati.